createdAt,value
2022-10-21T00:01:50.877Z,15.65
2022-10-21T00:04:17.582Z,15.65
2022-10-21T00:06:44.317Z,15.65
2022-10-21T00:09:11.128Z,15.65
2022-10-21T00:11:38.363Z,15.66
2022-10-21T00:14:05.124Z,15.65
2022-10-21T00:16:31.825Z,15.66
2022-10-21T00:18:58.592Z,15.65
2022-10-21T00:21:25.352Z,15.65
2022-10-21T00:23:52.105Z,15.66
2022-10-21T00:26:18.901Z,15.66
2022-10-21T00:28:45.710Z,15.67
2022-10-21T00:31:13.933Z,15.67
2022-10-21T00:33:41.123Z,15.69
2022-10-21T00:36:08.794Z,15.70
2022-10-21T00:38:35.803Z,15.69
2022-10-21T00:41:02.533Z,15.70
2022-10-21T00:43:29.274Z,15.70
2022-10-21T00:45:59.806Z,15.71
2022-10-21T00:48:36.027Z,15.70
2022-10-21T00:51:06.965Z,15.71
2022-10-21T00:53:35.525Z,15.71
2022-10-21T00:56:14.015Z,15.72
2022-10-21T00:58:44.014Z,15.72
2022-10-21T01:01:10.838Z,15.72
2022-10-21T01:03:37.566Z,15.72
2022-10-21T01:06:07.979Z,15.72
2022-10-21T01:08:35.337Z,15.71
2022-10-21T01:11:02.122Z,15.70
2022-10-21T01:13:57.428Z,15.70
2022-10-21T01:16:55.063Z,15.70
2022-10-21T01:19:52.472Z,15.67
2022-10-21T01:22:36.115Z,15.66
2022-10-21T01:25:11.737Z,15.67
2022-10-21T01:28:03.231Z,15.67
2022-10-21T01:31:14.948Z,15.69
2022-10-21T01:33:50.708Z,15.70
2022-10-21T01:36:24.326Z,15.71
2022-10-21T01:39:19.090Z,15.73
2022-10-21T01:41:56.454Z,15.76
2022-10-21T01:44:30.888Z,15.79
2022-10-21T01:46:58.241Z,15.83
2022-10-21T01:49:53.656Z,15.84
2022-10-21T01:52:20.848Z,15.87
2022-10-21T01:54:55.292Z,15.88
2022-10-21T01:57:24.678Z,15.90
2022-10-21T01:59:51.915Z,15.92
2022-10-21T02:02:19.978Z,15.91
2022-10-21T02:04:47.364Z,15.93
2022-10-21T02:07:14.045Z,15.95
2022-10-21T02:09:40.753Z,15.96
2022-10-21T02:12:07.693Z,15.97
2022-10-21T02:14:37.645Z,15.99
2022-10-21T02:17:05.132Z,16.01
2022-10-21T02:22:04.498Z,16.05
2022-10-21T02:24:31.069Z,16.06
2022-10-21T02:26:57.781Z,16.08
2022-10-21T02:29:28.723Z,16.11
2022-10-21T02:31:55.351Z,16.12
2022-10-21T02:34:43.287Z,16.13
2022-10-21T02:37:31.485Z,16.11
2022-10-21T02:40:23.783Z,16.12
2022-10-21T02:42:54.338Z,16.12
2022-10-21T02:45:21.480Z,16.15
2022-10-21T02:47:49.345Z,16.13
2022-10-21T02:50:16.605Z,16.13
2022-10-21T02:52:43.313Z,16.12
2022-10-21T02:55:10.058Z,16.10
2022-10-21T02:57:37.000Z,16.09
2022-10-21T03:00:06.390Z,16.08
2022-10-21T03:02:33.096Z,16.09
2022-10-21T03:04:59.829Z,16.08
2022-10-21T03:07:26.513Z,16.09
2022-10-21T03:09:53.266Z,16.09
2022-10-21T03:12:19.945Z,16.10
2022-10-21T03:14:46.621Z,16.10
2022-10-21T03:17:13.350Z,16.12
2022-10-21T03:19:40.023Z,16.13
2022-10-21T03:22:06.745Z,16.16
2022-10-21T03:24:33.445Z,16.16
2022-10-21T03:27:00.132Z,16.17
2022-10-21T03:29:26.812Z,16.18
2022-10-21T03:31:53.529Z,16.18
2022-10-21T03:34:20.266Z,16.17
2022-10-21T03:36:46.955Z,16.17
2022-10-21T03:39:13.664Z,16.16
2022-10-21T03:41:40.495Z,16.18
2022-10-21T03:44:07.201Z,16.19
2022-10-21T03:46:33.952Z,16.20
2022-10-21T03:49:04.172Z,16.22
2022-10-21T03:51:33.479Z,16.26
2022-10-21T03:54:00.172Z,16.27
2022-10-21T03:56:27.053Z,16.27
2022-10-21T03:58:58.414Z,16.29
2022-10-21T04:01:26.079Z,16.30
2022-10-21T04:03:52.940Z,16.33
2022-10-21T04:06:19.625Z,16.36
2022-10-21T04:08:46.374Z,16.37
2022-10-21T04:11:13.113Z,16.38
2022-10-21T04:13:39.858Z,16.41
2022-10-21T04:16:08.485Z,16.41
2022-10-21T04:18:35.174Z,16.43
2022-10-21T04:21:01.875Z,16.44
2022-10-21T04:23:28.579Z,16.45
2022-10-21T04:25:55.265Z,16.45
2022-10-21T04:28:21.945Z,16.46
2022-10-21T04:30:49.980Z,16.48
2022-10-21T04:33:16.666Z,16.47
2022-10-21T04:35:43.364Z,16.51
2022-10-21T04:38:10.193Z,16.50
2022-10-21T04:40:36.888Z,16.51
2022-10-21T04:43:03.584Z,16.51
2022-10-21T04:45:30.278Z,16.53
2022-10-21T04:47:56.960Z,16.53
2022-10-21T04:50:23.667Z,16.51
2022-10-21T04:52:50.348Z,16.49
2022-10-21T04:55:17.037Z,16.45
2022-10-21T04:57:43.758Z,16.43
2022-10-21T05:00:11.235Z,16.42
2022-10-21T05:02:38.168Z,16.39
2022-10-21T05:05:05.386Z,16.37
2022-10-21T05:07:32.073Z,16.36
2022-10-21T05:09:58.745Z,16.32
2022-10-21T05:12:25.549Z,16.29
2022-10-21T05:14:52.256Z,16.23
2022-10-21T05:17:18.943Z,16.21
2022-10-21T05:19:45.669Z,16.18
2022-10-21T05:22:12.439Z,16.15
2022-10-21T05:24:39.142Z,16.11
2022-10-21T05:27:05.822Z,16.08
2022-10-21T05:29:32.525Z,16.05
2022-10-21T05:31:59.202Z,16.03
2022-10-21T05:34:25.919Z,15.99
2022-10-21T05:36:52.597Z,15.98
2022-10-21T05:39:19.311Z,15.97
2022-10-21T05:41:48.006Z,15.96
2022-10-21T05:44:15.078Z,15.94
2022-10-21T05:46:41.904Z,15.93
2022-10-21T05:49:08.849Z,15.92
2022-10-21T05:51:35.528Z,15.90
2022-10-21T05:54:03.869Z,15.89
2022-10-21T05:56:30.585Z,15.87
2022-10-21T05:58:57.375Z,15.88
2022-10-21T06:01:24.158Z,15.87
2022-10-21T06:03:50.916Z,15.86
2022-10-21T06:06:17.597Z,15.86
2022-10-21T06:08:44.778Z,15.86
2022-10-21T06:11:14.388Z,15.85
2022-10-21T06:13:41.415Z,15.85
2022-10-21T06:16:09.019Z,15.85
2022-10-21T06:18:36.099Z,15.86
2022-10-21T06:21:03.353Z,15.88
2022-10-21T06:23:30.069Z,15.87
2022-10-21T06:26:17.050Z,15.90
2022-10-21T06:28:44.381Z,15.91
2022-10-21T06:31:14.512Z,15.94
2022-10-21T06:33:41.390Z,15.95
2022-10-21T06:36:08.161Z,15.96
2022-10-21T06:38:36.860Z,15.99
2022-10-21T06:41:12.292Z,16.02
2022-10-21T06:43:40.572Z,16.06
2022-10-21T06:46:11.573Z,16.12
2022-10-21T06:48:38.305Z,16.15
2022-10-21T06:51:10.406Z,16.17
2022-10-21T06:53:39.216Z,16.22
2022-10-21T06:56:08.368Z,16.25
2022-10-21T06:58:36.136Z,16.29
2022-10-21T07:01:21.376Z,16.34
2022-10-21T07:03:57.563Z,16.37
2022-10-21T07:06:24.359Z,16.40
2022-10-21T07:08:58.028Z,16.45
2022-10-21T07:11:25.806Z,16.49
2022-10-21T07:13:52.481Z,16.51
2022-10-21T07:16:27.431Z,16.56
2022-10-21T07:18:55.139Z,16.59
2022-10-21T07:21:23.643Z,16.61
2022-10-21T07:23:51.520Z,16.65
2022-10-21T07:26:19.958Z,16.70
2022-10-21T07:28:47.768Z,16.73
2022-10-21T07:31:18.722Z,16.77
2022-10-21T07:33:45.849Z,16.80
2022-10-21T07:36:23.177Z,16.82
2022-10-21T07:38:51.068Z,16.84
2022-10-21T07:41:24.481Z,16.84
2022-10-21T07:43:51.661Z,16.86
2022-10-21T07:46:19.014Z,16.89
2022-10-21T07:48:45.756Z,16.89
2022-10-21T07:51:16.448Z,16.91
2022-10-21T07:53:43.129Z,16.93
2022-10-21T07:56:16.851Z,16.95
2022-10-21T07:58:44.318Z,16.97
2022-10-21T08:01:11.486Z,17.01
2022-10-21T08:03:38.989Z,17.08
2022-10-21T08:06:07.007Z,17.10
2022-10-21T08:08:34.286Z,17.14
2022-10-21T08:11:01.781Z,17.18
2022-10-21T08:13:29.442Z,17.22
2022-10-21T08:15:56.873Z,17.26
2022-10-21T08:18:24.599Z,17.28
2022-10-21T08:20:51.481Z,17.34
2022-10-21T08:23:20.306Z,17.38
2022-10-21T08:25:48.874Z,17.43
2022-10-21T08:28:15.692Z,17.47
2022-10-21T08:30:43.280Z,17.51
2022-10-21T08:33:10.167Z,17.56
2022-10-21T08:35:36.868Z,17.59
2022-10-21T08:38:04.243Z,17.62
2022-10-21T08:40:37.137Z,17.67
2022-10-21T08:43:17.663Z,17.72
2022-10-21T08:45:49.255Z,17.76
2022-10-21T08:48:20.527Z,17.80
2022-10-21T08:50:49.276Z,17.85
2022-10-21T08:53:23.432Z,17.90
2022-10-21T08:55:52.017Z,17.96
2022-10-21T08:58:23.253Z,18.02
2022-10-21T09:01:19.149Z,18.09
2022-10-21T09:03:48.347Z,18.15
2022-10-21T09:06:23.417Z,18.23
2022-10-21T09:08:57.501Z,18.29
2022-10-21T09:11:58.585Z,18.33
2022-10-21T09:14:44.089Z,18.42
2022-10-21T09:17:25.733Z,18.48
2022-10-21T09:20:06.994Z,18.56
2022-10-21T09:22:49.416Z,18.64
2022-10-21T09:25:16.011Z,18.72
2022-10-21T09:27:56.781Z,18.81
2022-10-21T09:30:24.694Z,18.88
2022-10-21T09:32:56.319Z,18.97
2022-10-21T09:35:42.603Z,19.05
2022-10-21T09:38:16.962Z,19.11
2022-10-21T09:40:44.426Z,19.17
2022-10-21T09:43:20.742Z,19.23
2022-10-21T09:45:47.673Z,19.28
2022-10-21T09:48:17.490Z,19.32
2022-10-21T09:50:45.696Z,19.38
2022-10-21T09:53:15.485Z,19.41
2022-10-21T09:55:44.480Z,19.46
2022-10-21T09:58:27.222Z,19.50
2022-10-21T10:00:54.177Z,19.52
2022-10-21T10:03:35.780Z,19.58
2022-10-21T10:06:04.439Z,19.60
2022-10-21T10:08:33.023Z,19.61
2022-10-21T10:11:09.490Z,19.65
2022-10-21T10:13:37.608Z,19.67
2022-10-21T10:16:27.178Z,19.72
2022-10-21T10:19:15.984Z,19.76
2022-10-21T10:21:43.350Z,19.79
2022-10-21T10:24:18.706Z,19.81
2022-10-21T10:26:46.056Z,19.83
2022-10-21T10:29:15.789Z,19.83
2022-10-21T10:31:49.564Z,19.86
2022-10-21T10:34:36.473Z,19.87
2022-10-21T10:37:07.117Z,19.86
2022-10-21T10:39:36.462Z,19.86
2022-10-21T10:42:03.417Z,19.87
2022-10-21T10:44:41.223Z,19.89
2022-10-21T10:47:16.215Z,19.90
2022-10-21T10:49:43.847Z,19.89
2022-10-21T10:52:10.443Z,19.91
2022-10-21T10:54:38.569Z,19.92
2022-10-21T10:57:13.585Z,19.93
2022-10-21T10:59:51.423Z,19.94
2022-10-21T11:02:51.717Z,19.97
2022-10-21T11:05:25.600Z,19.98
2022-10-21T11:07:54.323Z,19.99
2022-10-21T11:10:32.520Z,20.02
2022-10-21T11:13:00.944Z,20.03
2022-10-21T11:15:37.182Z,20.04
2022-10-21T11:18:35.125Z,20.04
2022-10-21T11:21:35.914Z,20.05
2022-10-21T11:24:20.807Z,20.04
2022-10-21T11:27:09.847Z,20.03
2022-10-21T11:29:45.170Z,20.02
2022-10-21T11:32:27.377Z,20.01
2022-10-21T11:35:00.164Z,19.98
2022-10-21T11:37:37.610Z,19.97
2022-10-21T11:40:25.197Z,19.97
2022-10-21T11:42:52.448Z,19.98
2022-10-21T11:45:42.845Z,19.97
2022-10-21T11:48:25.527Z,19.98
2022-10-21T11:51:03.831Z,19.98
2022-10-21T11:53:52.815Z,20.02
2022-10-21T11:56:39.729Z,20.05
2022-10-21T11:59:34.478Z,20.07
2022-10-21T12:02:31.272Z,20.07
2022-10-21T12:05:25.456Z,20.08
2022-10-21T12:07:55.202Z,20.09
2022-10-21T12:10:32.856Z,20.12
2022-10-21T12:13:05.421Z,20.14
2022-10-21T12:15:38.750Z,20.14
2022-10-21T12:18:05.890Z,20.16
2022-10-21T12:20:33.491Z,20.14
2022-10-21T12:23:05.383Z,20.16
2022-10-21T12:25:58.937Z,20.16
2022-10-21T12:28:40.362Z,20.16
2022-10-21T12:31:25.219Z,20.14
2022-10-21T12:33:52.546Z,20.12
2022-10-21T12:36:39.697Z,20.11
2022-10-21T12:39:12.719Z,20.09
2022-10-21T12:41:40.537Z,20.09
2022-10-21T12:44:17.661Z,20.10
2022-10-21T12:46:46.464Z,20.08
2022-10-21T12:49:21.461Z,20.07
2022-10-21T12:52:03.568Z,20.06
2022-10-21T12:54:51.237Z,20.02
2022-10-21T12:57:26.254Z,20.01
2022-10-21T13:00:14.475Z,20.02
2022-10-21T13:02:59.319Z,20.03
2022-10-21T13:05:38.219Z,20.02
2022-10-21T13:08:20.203Z,20.03
2022-10-21T13:11:08.288Z,20.01
2022-10-21T13:13:35.535Z,20.01
2022-10-21T13:16:22.138Z,20.01
2022-10-21T13:19:00.374Z,20.00
2022-10-21T13:21:29.955Z,20.00
2022-10-21T13:24:06.911Z,20.00
2022-10-21T13:26:33.680Z,20.00
2022-10-21T13:29:34.223Z,20.00
2022-10-21T13:32:19.329Z,19.96
2022-10-21T13:34:59.185Z,19.95
2022-10-21T13:37:30.021Z,19.93
2022-10-21T13:40:00.388Z,19.93
2022-10-21T13:42:33.405Z,19.92
2022-10-21T13:45:05.485Z,19.92
2022-10-21T13:47:34.344Z,19.93
2022-10-21T13:50:09.820Z,19.91
2022-10-21T13:52:36.580Z,19.93
2022-10-21T13:55:04.885Z,19.92
2022-10-21T13:57:32.784Z,19.93
2022-10-21T14:00:01.398Z,19.93
2022-10-21T14:02:28.259Z,19.91
2022-10-21T14:04:55.032Z,19.88
2022-10-21T14:07:21.874Z,19.86
2022-10-21T14:09:51.866Z,19.84
2022-10-21T14:12:28.596Z,19.83
2022-10-21T14:14:57.513Z,19.81
2022-10-21T14:17:25.961Z,19.79
2022-10-21T14:19:55.219Z,19.80
2022-10-21T14:22:26.213Z,19.78
2022-10-21T14:24:56.668Z,19.78
2022-10-21T14:27:29.045Z,19.77
2022-10-21T14:29:56.963Z,19.72
2022-10-21T14:32:25.677Z,19.72
2022-10-21T14:35:10.565Z,19.70
2022-10-21T14:37:40.202Z,19.70
2022-10-21T14:40:31.851Z,19.68
2022-10-21T14:43:04.761Z,19.67
2022-10-21T14:45:36.499Z,19.65
2022-10-21T14:48:09.593Z,19.63
2022-10-21T14:50:38.396Z,19.60
2022-10-21T14:53:14.609Z,19.59
2022-10-21T14:55:42.466Z,19.58
2022-10-21T14:58:11.121Z,19.58
2022-10-21T15:00:41.457Z,19.57
2022-10-21T15:03:12.277Z,19.54
2022-10-21T15:05:45.223Z,19.55
2022-10-21T15:08:22.527Z,19.54
2022-10-21T15:11:00.180Z,19.53
2022-10-21T15:13:27.020Z,19.52
2022-10-21T15:15:58.709Z,19.52
2022-10-21T15:18:42.926Z,19.53
2022-10-21T15:21:15.407Z,19.51
2022-10-21T15:23:48.941Z,19.52
2022-10-21T15:26:20.069Z,19.50
2022-10-21T15:28:46.952Z,19.48
2022-10-21T15:31:26.676Z,19.46
2022-10-21T15:33:54.873Z,19.45
2022-10-21T15:36:21.768Z,19.43
2022-10-21T15:38:48.687Z,19.43
2022-10-21T15:41:21.220Z,19.43
2022-10-21T15:44:19.987Z,19.43
2022-10-21T15:46:46.903Z,19.42
2022-10-21T15:49:22.383Z,19.43
2022-10-21T15:51:49.801Z,19.41
2022-10-21T15:54:18.183Z,19.42
2022-10-21T15:56:46.785Z,19.41
2022-10-21T15:59:19.768Z,19.41
2022-10-21T16:01:46.965Z,19.40
2022-10-21T16:04:13.660Z,19.38
2022-10-21T16:06:45.617Z,19.37
2022-10-21T16:09:18.157Z,19.37
2022-10-21T16:11:58.859Z,19.36
2022-10-21T16:14:29.552Z,19.35
2022-10-21T16:16:58.220Z,19.34
2022-10-21T16:19:24.934Z,19.31
2022-10-21T16:21:51.668Z,19.28
2022-10-21T16:24:18.556Z,19.26
2022-10-21T16:26:47.240Z,19.22
2022-10-21T16:29:19.565Z,19.20
2022-10-21T16:31:46.472Z,19.19
2022-10-21T16:34:13.670Z,19.18
2022-10-21T16:36:40.625Z,19.16
2022-10-21T16:39:14.446Z,19.15
2022-10-21T16:41:41.152Z,19.13
2022-10-21T16:44:07.856Z,19.13
2022-10-21T16:46:40.302Z,19.12
2022-10-21T16:49:13.150Z,19.12
2022-10-21T16:51:41.135Z,19.11
2022-10-21T16:54:07.896Z,19.11
2022-10-21T16:56:34.603Z,19.11
2022-10-21T16:59:01.339Z,19.10
2022-10-21T17:01:28.110Z,19.09
2022-10-21T17:03:54.810Z,19.09
2022-10-21T17:06:23.696Z,19.07
2022-10-21T17:08:51.618Z,19.06
2022-10-21T17:11:36.976Z,19.05
2022-10-21T17:14:05.633Z,19.06
2022-10-21T17:16:32.495Z,19.05
2022-10-21T17:18:59.196Z,19.05
2022-10-21T17:21:28.046Z,19.04
2022-10-21T17:23:56.131Z,19.04
2022-10-21T17:26:22.913Z,19.03
2022-10-21T17:28:50.396Z,19.04
2022-10-21T17:31:19.325Z,19.03
2022-10-21T17:33:47.148Z,19.04
2022-10-21T17:36:14.726Z,19.03
2022-10-21T17:38:41.910Z,19.02
2022-10-21T17:41:09.857Z,19.03
2022-10-21T17:43:36.757Z,19.03
2022-10-21T17:46:03.716Z,19.02
2022-10-21T17:48:30.400Z,19.01
2022-10-21T17:50:59.628Z,19.01
2022-10-21T17:53:27.786Z,19.00
2022-10-21T17:56:02.649Z,18.99
2022-10-21T17:58:29.837Z,18.99
2022-10-21T18:00:57.192Z,18.98
2022-10-21T18:03:28.657Z,19.00
2022-10-21T18:05:56.159Z,18.99
2022-10-21T18:08:23.561Z,19.00
2022-10-21T18:10:58.142Z,19.01
2022-10-21T18:13:29.852Z,18.99
2022-10-21T18:16:03.040Z,19.00
2022-10-21T18:18:30.181Z,19.00
2022-10-21T18:21:29.957Z,18.99
2022-10-21T18:23:56.735Z,18.99
2022-10-21T18:26:28.793Z,18.96
2022-10-21T18:28:57.453Z,18.95
2022-10-21T18:31:27.921Z,18.91
2022-10-21T18:33:55.407Z,18.87
2022-10-21T18:36:22.608Z,18.84
2022-10-21T18:38:49.574Z,18.80
2022-10-21T18:41:20.697Z,18.76
2022-10-21T18:43:50.355Z,18.73
2022-10-21T18:46:17.651Z,18.68
2022-10-21T18:48:44.363Z,18.65
2022-10-21T18:51:11.972Z,18.62
2022-10-21T18:53:39.275Z,18.59
2022-10-21T18:56:07.896Z,18.55
2022-10-21T18:58:35.328Z,18.51
2022-10-21T19:01:02.160Z,18.48
2022-10-21T19:03:28.929Z,18.45
2022-10-21T19:05:55.906Z,18.41
2022-10-21T19:08:23.500Z,18.36
2022-10-21T19:10:50.210Z,18.35
2022-10-21T19:13:16.997Z,18.31
2022-10-21T19:15:43.733Z,18.27
2022-10-21T19:18:13.458Z,18.24
2022-10-21T19:20:40.415Z,18.21
2022-10-21T19:23:07.754Z,18.18
2022-10-21T19:25:34.518Z,18.14
2022-10-21T19:28:01.241Z,18.12
2022-10-21T19:30:28.803Z,18.10
2022-10-21T19:32:58.418Z,18.08
2022-10-21T19:35:25.131Z,18.06
2022-10-21T19:37:51.848Z,18.04
2022-10-21T19:40:18.529Z,18.02
2022-10-21T19:42:45.235Z,17.99
2022-10-21T19:45:16.780Z,17.98
2022-10-21T19:47:46.862Z,17.95
2022-10-21T19:50:13.590Z,17.93
2022-10-21T19:52:40.960Z,17.93
2022-10-21T19:55:25.981Z,17.90
2022-10-21T19:57:52.793Z,17.88
2022-10-21T20:00:19.478Z,17.87
2022-10-21T20:02:46.188Z,17.85
2022-10-21T20:05:12.872Z,17.83
2022-10-21T20:07:39.732Z,17.80
2022-10-21T20:10:07.021Z,17.77
2022-10-21T20:12:33.745Z,17.75
2022-10-21T20:15:00.434Z,17.72
2022-10-21T20:17:27.160Z,17.69
2022-10-21T20:19:53.882Z,17.67
2022-10-21T20:22:20.596Z,17.65
2022-10-21T20:24:47.294Z,17.62
2022-10-21T20:27:13.971Z,17.60
2022-10-21T20:29:40.678Z,17.58
2022-10-21T20:32:07.541Z,17.54
2022-10-21T20:34:37.517Z,17.53
2022-10-21T20:37:04.433Z,17.52
2022-10-21T20:39:31.122Z,17.51
2022-10-21T20:41:57.791Z,17.49
2022-10-21T20:44:25.474Z,17.48
2022-10-21T20:46:52.162Z,17.47
2022-10-21T20:49:18.870Z,17.44
2022-10-21T20:51:45.582Z,17.44
2022-10-21T20:54:17.536Z,17.44
2022-10-21T20:56:45.000Z,17.41
2022-10-21T20:59:15.323Z,17.40
2022-10-21T21:01:44.278Z,17.39
2022-10-21T21:04:13.583Z,17.37
2022-10-21T21:06:47.918Z,17.38
2022-10-21T21:12:03.531Z,17.35
2022-10-21T21:14:31.009Z,17.34
2022-10-21T21:16:57.768Z,17.34
2022-10-21T21:19:25.603Z,17.32
2022-10-21T21:23:08.737Z,17.32
2022-10-21T21:25:35.413Z,17.31
2022-10-21T21:28:02.098Z,17.30
2022-10-21T21:30:28.797Z,17.31
2022-10-21T21:32:55.510Z,17.32
2022-10-21T21:35:22.219Z,17.33
2022-10-21T21:37:48.947Z,17.35
2022-10-21T21:40:15.618Z,17.36
2022-10-21T21:42:42.686Z,17.37
2022-10-21T21:45:09.995Z,17.37
2022-10-21T21:47:36.737Z,17.38
2022-10-21T21:50:03.906Z,17.39
2022-10-21T21:52:30.679Z,17.41
2022-10-21T21:54:57.596Z,17.39
2022-10-21T21:57:27.863Z,17.42
2022-10-21T21:59:54.911Z,17.45
2022-10-21T22:02:21.603Z,17.47
2022-10-21T22:04:48.926Z,17.48
2022-10-21T22:07:15.612Z,17.50
2022-10-21T22:09:42.306Z,17.52
2022-10-21T22:12:12.931Z,17.53
2022-10-21T22:14:41.361Z,17.54
2022-10-21T22:17:08.158Z,17.55
2022-10-21T22:19:35.214Z,17.56
2022-10-21T22:22:01.926Z,17.57
2022-10-21T22:24:31.717Z,17.57
2022-10-21T22:26:58.421Z,17.57
2022-10-21T22:29:25.134Z,17.57
2022-10-21T22:31:51.961Z,17.55
2022-10-21T22:34:18.655Z,17.56
2022-10-21T22:36:45.360Z,17.55
2022-10-21T22:39:12.090Z,17.54
2022-10-21T22:41:38.822Z,17.53
2022-10-21T22:44:05.505Z,17.52
2022-10-21T22:46:34.597Z,17.52
2022-10-21T22:49:03.577Z,17.51
2022-10-21T22:51:30.820Z,17.48
2022-10-21T22:53:57.548Z,17.48
2022-10-21T22:56:25.224Z,17.46
2022-10-21T22:58:51.952Z,17.45
2022-10-21T23:01:18.764Z,17.43
2022-10-21T23:03:45.445Z,17.40
2022-10-21T23:06:12.169Z,17.39
2022-10-21T23:08:39.086Z,17.37
2022-10-21T23:11:05.791Z,17.36
2022-10-21T23:13:32.501Z,17.34
2022-10-21T23:15:59.250Z,17.32
2022-10-21T23:18:25.941Z,17.30
2022-10-21T23:20:52.692Z,17.29
2022-10-21T23:23:19.400Z,17.28
2022-10-21T23:25:46.082Z,17.28
2022-10-21T23:28:12.879Z,17.28
2022-10-21T23:30:40.441Z,17.28
2022-10-21T23:33:07.122Z,17.30
2022-10-21T23:35:33.894Z,17.30
2022-10-21T23:38:00.682Z,17.32
2022-10-21T23:40:28.194Z,17.33
2022-10-21T23:42:55.074Z,17.34
2022-10-21T23:45:21.807Z,17.35
2022-10-21T23:47:48.534Z,17.35
2022-10-21T23:50:15.263Z,17.35
2022-10-21T23:52:42.064Z,17.35
2022-10-21T23:55:09.240Z,17.34
2022-10-21T23:57:36.023Z,17.32
